Gladewater, Texas
Current Conditions -  °F | °C
As of 10:15 AM on Thursday 29 Jan 2015 (Local Time) from KJXI Reporting Station
Clear Clear  
Wind Chill: 63°   Ceiling: Unl
Heat Index: 63°   Visibility: 10mi
Dew Point: 49°   Wind: 7mph
Humidity: 61%   Direction: 270°W
Pressure: 30.22"   Gusts: NA
Location:  32.54°N, 94.94°W
Report Text: KJXI 291615Z AUTO 27006KT 10SM CLR 17/09 A3022 RMK AO2 T01700094
Loading
Personal Weather Stations






























Interactive Weather Map New forecast layout! Learn more

10-Day Weather Forecast

Advertisements
Track Severe Weather on mobile